createdAt,value
2022-11-14T00:01:34.466Z,39.28
2022-11-14T00:04:23.304Z,40.17
2022-11-14T00:07:11.717Z,37.95
2022-11-14T00:12:43.876Z,36.20
2022-11-14T00:15:29.546Z,36.60
2022-11-14T00:18:15.544Z,36.50
2022-11-14T00:21:01.576Z,34.92
2022-11-14T00:23:47.594Z,37.17
2022-11-14T00:26:33.656Z,36.20
2022-11-14T00:29:19.626Z,35.33
2022-11-14T00:32:05.603Z,37.47
2022-11-14T00:34:51.634Z,33.75
2022-11-14T00:37:37.654Z,35.67
2022-11-14T00:40:23.530Z,35.83
2022-11-14T00:43:09.726Z,35.83
2022-11-14T00:45:55.725Z,35.25
2022-11-14T00:48:41.936Z,36.25
2022-11-14T00:51:28.154Z,34.10
2022-11-14T00:54:14.246Z,35.42
2022-11-14T00:57:00.337Z,33.22
2022-11-14T00:59:46.259Z,34.53
2022-11-14T01:02:32.198Z,34.70
2022-11-14T01:05:18.172Z,33.33
2022-11-14T01:08:04.090Z,32.25
2022-11-14T01:10:51.329Z,32.15
2022-11-14T01:13:37.319Z,33.70
2022-11-14T01:16:23.208Z,32.03
2022-11-14T01:19:09.319Z,31.17
2022-11-14T01:21:55.358Z,33.97
2022-11-14T01:24:41.190Z,31.00
2022-11-14T01:27:27.312Z,32.33
2022-11-14T01:30:13.649Z,31.25
2022-11-14T01:32:59.557Z,30.55
2022-11-14T01:35:45.565Z,29.65
2022-11-14T01:38:31.701Z,28.98
2022-11-14T01:41:17.986Z,30.35
2022-11-14T01:44:04.164Z,30.00
2022-11-14T01:46:54.128Z,32.30
2022-11-14T01:49:43.333Z,31.10
2022-11-14T01:52:34.229Z,27.75
2022-11-14T01:55:20.230Z,26.42
2022-11-14T01:58:06.237Z,29.55
2022-11-14T02:00:52.222Z,27.25
2022-11-14T02:03:40.292Z,28.58
2022-11-14T02:06:28.574Z,28.08
2022-11-14T02:09:14.481Z,26.92
2022-11-14T02:12:01.785Z,26.92
2022-11-14T02:14:50.598Z,25.17
2022-11-14T02:17:36.754Z,26.70
2022-11-14T02:20:24.057Z,26.48
2022-11-14T02:23:13.595Z,28.23
2022-11-14T02:25:59.916Z,28.05
2022-11-14T02:28:46.149Z,28.15
2022-11-14T02:31:32.358Z,27.90
2022-11-14T02:34:20.423Z,24.73
2022-11-14T02:37:06.815Z,26.08
2022-11-14T02:39:53.301Z,25.27
2022-11-14T02:42:39.140Z,24.52
2022-11-14T02:45:24.968Z,23.63
2022-11-14T02:48:11.103Z,22.15
2022-11-14T02:50:57.073Z,21.13
2022-11-14T02:53:42.949Z,17.50
2022-11-14T02:56:29.099Z,16.20
2022-11-14T02:59:15.293Z,14.23
2022-11-14T03:02:01.379Z,15.02
2022-11-14T03:04:47.320Z,13.60
2022-11-14T03:07:33.327Z,12.30
2022-11-14T03:10:19.424Z,12.40
2022-11-14T03:13:05.609Z,9.93
2022-11-14T03:15:51.492Z,11.57
2022-11-14T03:18:37.474Z,11.82
2022-11-14T03:21:23.926Z,11.00
2022-11-14T03:24:09.581Z,12.32
2022-11-14T03:26:55.590Z,14.48
2022-11-14T03:29:41.473Z,83.13
2022-11-14T03:32:27.393Z,11.98
2022-11-14T03:35:13.462Z,21.95
2022-11-14T03:37:59.716Z,39.20
2022-11-14T03:40:45.768Z,19.55
2022-11-14T03:43:32.894Z,21.90
2022-11-14T03:46:19.008Z,16.65
2022-11-14T03:49:05.110Z,18.63
2022-11-14T03:51:50.977Z,17.33
2022-11-14T03:54:36.942Z,14.70
2022-11-14T03:57:23.001Z,14.85
2022-11-14T04:00:09.412Z,16.77
2022-11-14T04:02:58.495Z,18.10
2022-11-14T04:05:45.516Z,19.73
2022-11-14T04:08:31.685Z,18.00
2022-11-14T04:11:17.756Z,18.23
2022-11-14T04:14:03.904Z,21.85
2022-11-14T04:16:49.982Z,18.25
2022-11-14T04:19:36.207Z,18.67
2022-11-14T04:22:22.037Z,18.70
2022-11-14T04:27:53.911Z,19.02
2022-11-14T04:30:39.895Z,20.17
2022-11-14T04:33:26.214Z,22.77
2022-11-14T04:36:12.305Z,27.10
2022-11-14T04:38:58.146Z,25.48
2022-11-14T04:41:44.498Z,25.67
2022-11-14T04:44:30.995Z,27.10
2022-11-14T04:47:16.874Z,24.80
2022-11-14T04:50:03.167Z,23.80
2022-11-14T04:52:52.768Z,22.20
2022-11-14T04:55:38.950Z,22.67
2022-11-14T04:58:24.999Z,24.95
2022-11-14T05:01:11.804Z,24.98
2022-11-14T05:03:57.555Z,23.90
2022-11-14T05:06:43.631Z,26.92
2022-11-14T05:09:29.514Z,24.13
2022-11-14T05:12:15.553Z,22.88
2022-11-14T05:15:01.856Z,25.77
2022-11-14T05:17:47.939Z,23.60
2022-11-14T05:20:34.233Z,26.80
2022-11-14T05:23:21.297Z,29.60
2022-11-14T05:26:08.503Z,29.75
2022-11-14T05:28:54.222Z,28.83
2022-11-14T05:31:40.434Z,27.90
2022-11-14T05:34:26.482Z,28.13
2022-11-14T05:37:12.661Z,28.70
2022-11-14T05:39:58.682Z,28.45
2022-11-14T05:42:44.605Z,28.05
2022-11-14T05:45:31.844Z,29.08
2022-11-14T05:48:18.079Z,28.48
2022-11-14T05:51:05.212Z,30.13
2022-11-14T05:53:50.819Z,26.70
2022-11-14T05:56:36.814Z,25.90
2022-11-14T05:59:22.855Z,25.00
2022-11-14T06:02:08.969Z,28.83
2022-11-14T06:04:54.778Z,24.63
2022-11-14T06:07:40.786Z,24.83
2022-11-14T06:10:27.079Z,22.15
2022-11-14T06:13:13.276Z,19.42
2022-11-14T06:16:00.858Z,19.58
2022-11-14T06:18:46.971Z,19.40
2022-11-14T06:21:32.802Z,20.92
2022-11-14T06:24:20.179Z,19.80
2022-11-14T06:27:06.534Z,19.90
2022-11-14T06:29:52.561Z,19.98
2022-11-14T06:32:38.805Z,19.92
2022-11-14T06:35:27.425Z,19.20
2022-11-14T06:38:13.391Z,18.80
2022-11-14T06:41:06.319Z,18.17
2022-11-14T06:43:55.381Z,19.05
2022-11-14T06:46:41.392Z,19.80
2022-11-14T06:49:28.004Z,19.95
2022-11-14T06:52:14.074Z,20.00
2022-11-14T06:55:00.126Z,19.73
2022-11-14T06:57:46.075Z,19.33
2022-11-14T07:00:32.051Z,19.65
2022-11-14T07:03:18.039Z,19.88
2022-11-14T07:06:04.952Z,18.88
2022-11-14T07:08:51.077Z,17.55
2022-11-14T07:11:37.810Z,19.33
2022-11-14T07:14:23.935Z,18.33
2022-11-14T07:17:10.142Z,20.20
2022-11-14T07:19:56.112Z,20.08
2022-11-14T07:22:42.153Z,19.25
2022-11-14T07:25:28.133Z,21.58
2022-11-14T07:28:14.042Z,20.70
2022-11-14T07:31:00.235Z,19.75
2022-11-14T07:33:47.022Z,17.67
2022-11-14T07:36:32.750Z,17.77
2022-11-14T07:39:18.819Z,17.65
2022-11-14T07:42:04.866Z,17.02
2022-11-14T07:44:50.846Z,16.98
2022-11-14T07:47:37.126Z,16.88
2022-11-14T07:50:22.818Z,18.70
2022-11-14T07:53:08.881Z,17.63
2022-11-14T07:55:55.284Z,18.65
2022-11-14T07:58:42.369Z,18.25
2022-11-14T08:01:28.213Z,25.67
2022-11-14T08:04:14.114Z,25.65
2022-11-14T08:07:00.024Z,18.60
2022-11-14T08:09:46.101Z,18.33
2022-11-14T08:12:31.901Z,17.10
2022-11-14T08:15:17.884Z,16.25
2022-11-14T08:18:04.106Z,19.15
2022-11-14T08:20:50.074Z,17.42
2022-11-14T08:23:36.088Z,16.92
2022-11-14T08:26:22.146Z,16.50
2022-11-14T08:29:08.057Z,16.23
2022-11-14T08:31:58.759Z,17.38
2022-11-14T08:34:46.417Z,17.15
2022-11-14T08:37:32.419Z,18.67
2022-11-14T08:40:18.436Z,19.15
2022-11-14T08:43:05.766Z,17.40
2022-11-14T08:45:51.414Z,16.70
2022-11-14T08:48:37.406Z,18.38
2022-11-14T08:51:23.596Z,18.55
2022-11-14T08:54:09.579Z,21.50
2022-11-14T08:56:55.533Z,18.58
2022-11-14T08:59:44.571Z,19.67
2022-11-14T09:02:30.423Z,20.67
2022-11-14T09:05:16.415Z,19.60
2022-11-14T09:08:02.471Z,20.42
2022-11-14T09:10:48.348Z,19.98
2022-11-14T09:13:35.140Z,20.67
2022-11-14T09:16:21.068Z,19.40
2022-11-14T09:19:06.986Z,20.58
2022-11-14T09:21:52.961Z,20.42
2022-11-14T09:24:38.941Z,20.80
2022-11-14T09:27:27.136Z,21.90
2022-11-14T09:30:13.594Z,21.35
2022-11-14T09:33:02.097Z,22.45
2022-11-14T09:35:49.280Z,26.08
2022-11-14T09:38:38.635Z,19.90
2022-11-14T09:41:25.150Z,17.55
2022-11-14T09:44:23.014Z,19.98
2022-11-14T09:47:20.542Z,18.90
2022-11-14T09:50:11.542Z,18.92
2022-11-14T09:52:58.868Z,18.85
2022-11-14T09:55:44.715Z,19.02
2022-11-14T10:01:37.532Z,19.33
2022-11-14T10:04:41.793Z,18.98
2022-11-14T10:07:36.994Z,18.33
2022-11-14T10:10:33.342Z,17.88
2022-11-14T10:13:42.006Z,18.80
2022-11-14T10:16:36.851Z,17.70
2022-11-14T10:19:41.559Z,17.30
2022-11-14T10:22:28.910Z,16.80
2022-11-14T10:25:22.158Z,18.40
2022-11-14T10:28:08.116Z,18.63
2022-11-14T10:31:09.428Z,19.70
2022-11-14T10:33:55.284Z,19.38
2022-11-14T10:36:41.137Z,19.23
2022-11-14T10:39:27.079Z,19.90
2022-11-14T10:42:26.721Z,19.13
2022-11-14T10:45:12.851Z,17.33
2022-11-14T10:48:01.041Z,19.02
2022-11-14T10:50:46.723Z,19.33
2022-11-14T10:53:35.757Z,16.42
2022-11-14T10:56:22.228Z,19.40
2022-11-14T10:59:09.801Z,17.02
2022-11-14T11:01:57.204Z,19.13
2022-11-14T11:04:43.711Z,17.70
2022-11-14T11:07:48.108Z,18.50
2022-11-14T11:10:53.877Z,19.65
2022-11-14T11:13:51.653Z,19.80
2022-11-14T11:16:37.593Z,20.85
2022-11-14T11:19:25.140Z,20.80
2022-11-14T11:22:29.798Z,23.95
2022-11-14T11:25:35.889Z,24.63
2022-11-14T11:28:22.909Z,23.25
2022-11-14T11:31:10.602Z,21.42
2022-11-14T11:33:56.870Z,23.85
2022-11-14T11:36:48.050Z,23.55
2022-11-14T11:39:36.664Z,23.75
2022-11-14T11:43:23.704Z,22.95
2022-11-14T11:45:47.121Z,25.67
2022-11-14T11:48:39.282Z,24.23
2022-11-14T11:51:27.058Z,24.45
2022-11-14T11:54:20.887Z,26.55
2022-11-14T11:57:11.372Z,26.50
2022-11-14T12:00:02.346Z,27.77
2022-11-14T12:02:50.477Z,28.05
2022-11-14T12:05:55.386Z,28.90
2022-11-14T12:08:40.958Z,26.05
2022-11-14T12:11:27.957Z,34.80
2022-11-14T12:14:23.026Z,51.88
2022-11-14T12:17:09.065Z,37.90
2022-11-14T12:20:05.500Z,38.95
2022-11-14T12:23:06.738Z,47.65
2022-11-14T12:26:21.536Z,53.20
2022-11-14T12:29:25.908Z,30.30
2022-11-14T12:32:14.430Z,32.13
2022-11-14T12:35:01.336Z,27.55
2022-11-14T12:37:54.297Z,30.15
2022-11-14T12:40:42.884Z,29.23
2022-11-14T12:43:37.475Z,33.53
2022-11-14T12:46:23.881Z,40.70
2022-11-14T12:49:38.217Z,49.97
2022-11-14T12:52:36.617Z,31.65
2022-11-14T12:55:25.655Z,29.73
2022-11-14T12:58:30.614Z,34.83
2022-11-14T13:01:23.011Z,29.73
2022-11-14T13:04:11.844Z,29.30
2022-11-14T13:07:16.623Z,27.98
2022-11-14T13:10:15.169Z,29.27
2022-11-14T13:13:25.028Z,29.05
2022-11-14T13:16:42.981Z,29.63
2022-11-14T13:19:47.709Z,27.13
2022-11-14T13:22:53.842Z,28.90
2022-11-14T13:25:40.208Z,30.80
2022-11-14T13:28:38.385Z,27.85
2022-11-14T13:31:36.570Z,26.90
2022-11-14T13:34:41.255Z,29.30
2022-11-14T13:37:47.691Z,29.50
2022-11-14T13:40:51.971Z,36.88
2022-11-14T13:43:58.620Z,99.32
2022-11-14T13:46:53.542Z,59.35
2022-11-14T13:49:42.618Z,71.17
2022-11-14T13:52:30.070Z,52.05
2022-11-14T13:55:20.908Z,30.60
2022-11-14T13:58:26.231Z,27.55
2022-11-14T14:01:21.193Z,48.00
2022-11-14T14:04:25.393Z,34.63
2022-11-14T14:07:21.138Z,35.03
2022-11-14T14:10:19.602Z,27.95
2022-11-14T14:13:17.960Z,28.35
2022-11-14T14:16:25.871Z,29.05
2022-11-14T14:19:14.905Z,29.98
2022-11-14T14:22:00.737Z,28.65
2022-11-14T14:24:59.201Z,29.52
2022-11-14T14:28:04.018Z,32.25
2022-11-14T14:31:08.748Z,32.28
2022-11-14T14:33:54.802Z,27.70
2022-11-14T14:36:49.267Z,30.05
2022-11-14T14:39:35.267Z,26.90
2022-11-14T14:42:22.181Z,25.58
2022-11-14T14:45:18.794Z,25.92
2022-11-14T14:48:13.721Z,28.52
2022-11-14T14:51:00.688Z,26.83
2022-11-14T14:53:54.154Z,28.92
2022-11-14T14:56:40.036Z,29.52
2022-11-14T14:59:26.386Z,33.05
2022-11-14T15:02:17.958Z,28.75
2022-11-14T15:05:04.536Z,29.55
2022-11-14T15:07:51.612Z,27.23
2022-11-14T15:10:37.887Z,29.10
2022-11-14T15:13:24.446Z,28.45
2022-11-14T15:16:11.498Z,28.38
2022-11-14T15:18:58.904Z,28.25
2022-11-14T15:21:44.972Z,31.75
2022-11-14T15:24:31.253Z,38.42
2022-11-14T15:27:18.724Z,44.58
2022-11-14T15:30:06.793Z,36.38
2022-11-14T15:32:54.437Z,34.47
2022-11-14T15:35:41.059Z,37.00
2022-11-14T15:41:33.733Z,31.70
2022-11-14T15:44:32.876Z,30.98
2022-11-14T15:47:20.885Z,27.30
2022-11-14T15:50:22.016Z,25.77
2022-11-14T15:53:17.581Z,29.08
2022-11-14T15:56:03.251Z,25.83
2022-11-14T15:58:49.627Z,28.67
2022-11-14T16:01:35.752Z,32.15
2022-11-14T16:04:22.807Z,37.67
2022-11-14T16:07:11.596Z,39.22
2022-11-14T16:09:57.826Z,31.65
2022-11-14T16:12:47.968Z,35.90
2022-11-14T16:15:36.828Z,29.55
2022-11-14T16:18:22.797Z,27.73
2022-11-14T16:21:11.391Z,30.17
2022-11-14T16:23:58.083Z,31.92
2022-11-14T16:26:44.267Z,28.33
2022-11-14T16:29:30.434Z,31.77
2022-11-14T16:32:16.705Z,33.28
2022-11-14T16:35:02.656Z,25.77
2022-11-14T16:37:49.046Z,26.38
2022-11-14T16:40:35.241Z,25.15
2022-11-14T16:43:21.643Z,26.70
2022-11-14T16:46:08.105Z,27.30
2022-11-14T16:48:55.344Z,25.35
2022-11-14T16:51:50.362Z,26.48
2022-11-14T16:54:36.916Z,28.07
2022-11-14T16:57:23.132Z,35.20
2022-11-14T17:00:10.754Z,40.60
2022-11-14T17:02:56.923Z,31.45
2022-11-14T17:05:46.964Z,31.58
2022-11-14T17:08:32.970Z,29.77
2022-11-14T17:11:18.882Z,31.08
2022-11-14T17:14:04.884Z,31.23
2022-11-14T17:16:50.965Z,26.88
2022-11-14T17:19:38.979Z,26.98
2022-11-14T17:22:24.840Z,28.20
2022-11-14T17:25:11.096Z,34.35
2022-11-14T17:27:56.954Z,26.67
2022-11-14T17:30:43.177Z,30.67
2022-11-14T17:33:29.280Z,34.42
2022-11-14T17:36:15.057Z,34.72
2022-11-14T17:39:00.989Z,33.72
2022-11-14T17:41:47.075Z,27.05
2022-11-14T17:44:33.089Z,23.20
2022-11-14T17:47:19.246Z,25.77
2022-11-14T17:50:05.532Z,26.35
2022-11-14T17:52:51.669Z,24.17
2022-11-14T17:55:38.477Z,23.60
2022-11-14T17:58:25.058Z,22.85
2022-11-14T18:01:15.586Z,20.45
2022-11-14T18:04:06.130Z,23.73
2022-11-14T18:06:53.069Z,22.15
2022-11-14T18:09:39.793Z,21.45
2022-11-14T18:12:25.446Z,24.27
2022-11-14T18:15:11.635Z,25.10
2022-11-14T18:17:57.658Z,22.25
2022-11-14T18:20:43.581Z,22.40
2022-11-14T18:23:29.611Z,23.23
2022-11-14T18:26:16.682Z,21.35
2022-11-14T18:29:02.923Z,22.42
2022-11-14T18:31:48.606Z,22.35
2022-11-14T18:34:37.089Z,22.15
2022-11-14T18:37:23.480Z,20.38
2022-11-14T18:40:16.299Z,21.75
2022-11-14T18:43:02.460Z,24.95
2022-11-14T18:45:48.416Z,27.90
2022-11-14T18:48:35.490Z,25.83
2022-11-14T18:51:22.811Z,25.00
2022-11-14T18:54:13.177Z,25.50
2022-11-14T18:57:00.272Z,24.75
2022-11-14T18:59:46.195Z,24.17
2022-11-14T19:02:32.421Z,25.60
2022-11-14T19:05:18.242Z,25.05
2022-11-14T19:08:05.360Z,25.25
2022-11-14T19:10:51.307Z,24.23
2022-11-14T19:13:37.342Z,28.90
2022-11-14T19:16:23.691Z,23.58
2022-11-14T19:19:09.386Z,24.23
2022-11-14T19:21:55.363Z,24.83
2022-11-14T19:24:47.227Z,24.05
2022-11-14T19:27:33.382Z,24.02
2022-11-14T19:30:19.415Z,22.58
2022-11-14T19:33:05.521Z,22.15
2022-11-14T19:35:51.876Z,24.63
2022-11-14T19:38:37.965Z,23.42
2022-11-14T19:41:26.703Z,21.85
2022-11-14T19:44:13.109Z,21.73
2022-11-14T19:46:59.297Z,20.92
2022-11-14T19:49:45.501Z,20.77
2022-11-14T19:52:31.516Z,20.55
2022-11-14T19:55:17.413Z,21.25
2022-11-14T19:58:03.397Z,20.13
2022-11-14T20:00:49.490Z,20.48
2022-11-14T20:03:35.927Z,18.48
2022-11-14T20:06:23.521Z,19.73
2022-11-14T20:09:10.528Z,17.73
2022-11-14T20:11:56.406Z,20.55
2022-11-14T20:14:42.372Z,19.77
2022-11-14T20:17:28.331Z,19.15
2022-11-14T20:20:14.470Z,20.33
2022-11-14T20:23:00.468Z,19.40
2022-11-14T20:25:51.718Z,16.20
2022-11-14T20:28:37.503Z,14.23
2022-11-14T20:31:24.503Z,13.95
2022-11-14T20:34:11.262Z,13.43
2022-11-14T20:37:10.275Z,14.15
2022-11-14T20:39:57.881Z,12.15
2022-11-14T20:42:47.525Z,14.15
2022-11-14T20:45:33.725Z,13.35
2022-11-14T20:48:19.795Z,11.13
2022-11-14T20:51:07.185Z,14.68
2022-11-14T20:53:54.541Z,12.55
2022-11-14T20:56:40.818Z,10.65
2022-11-14T20:59:26.930Z,11.57
2022-11-14T21:02:14.457Z,10.25
2022-11-14T21:05:00.937Z,10.23
2022-11-14T21:07:47.025Z,11.23
2022-11-14T21:10:46.380Z,10.10
2022-11-14T21:13:53.699Z,9.10
2022-11-14T21:16:40.406Z,10.07
2022-11-14T21:19:26.880Z,9.07
2022-11-14T21:22:13.411Z,9.68
2022-11-14T21:24:59.521Z,10.30
2022-11-14T21:27:45.232Z,9.95
2022-11-14T21:30:34.729Z,10.10
2022-11-14T21:33:20.697Z,9.85
2022-11-14T21:36:22.840Z,8.18
2022-11-14T21:39:14.959Z,9.65
2022-11-14T21:42:01.473Z,8.20
2022-11-14T21:44:47.483Z,9.25
2022-11-14T21:47:34.145Z,9.52
2022-11-14T21:50:20.333Z,9.40
2022-11-14T21:53:15.864Z,8.77
2022-11-14T21:56:28.226Z,9.07
2022-11-14T21:59:18.658Z,8.82
2022-11-14T22:02:23.426Z,8.90
2022-11-14T22:05:09.383Z,9.15
2022-11-14T22:07:55.330Z,9.30
2022-11-14T22:10:41.185Z,9.10
2022-11-14T22:13:29.434Z,8.82
2022-11-14T22:16:19.658Z,8.98
2022-11-14T22:19:06.058Z,9.80
2022-11-14T22:21:52.932Z,9.35
2022-11-14T22:24:39.188Z,9.45
2022-11-14T22:27:25.015Z,9.77
2022-11-14T22:30:11.533Z,9.07
2022-11-14T22:32:59.934Z,9.57
2022-11-14T22:35:45.693Z,9.57
2022-11-14T22:38:32.479Z,9.20
2022-11-14T22:41:19.934Z,9.80
2022-11-14T22:44:05.843Z,10.63
2022-11-14T22:46:51.813Z,10.45
2022-11-14T22:49:37.767Z,9.95
2022-11-14T22:52:23.729Z,10.65
2022-11-14T22:55:15.206Z,10.63
2022-11-14T22:58:04.024Z,10.75
2022-11-14T23:00:50.389Z,9.98
2022-11-14T23:03:36.503Z,9.48
2022-11-14T23:06:23.213Z,10.02
2022-11-14T23:09:09.442Z,10.30
2022-11-14T23:11:55.502Z,10.20
2022-11-14T23:14:41.375Z,10.25
2022-11-14T23:17:27.480Z,10.35
2022-11-14T23:20:16.462Z,10.40
2022-11-14T23:23:02.934Z,10.85
2022-11-14T23:25:48.785Z,10.73
2022-11-14T23:28:35.137Z,11.02
2022-11-14T23:31:21.598Z,10.93
2022-11-14T23:34:07.898Z,11.27
2022-11-14T23:36:53.742Z,11.10
2022-11-14T23:39:39.787Z,10.02
2022-11-14T23:42:25.779Z,11.02
2022-11-14T23:45:11.710Z,11.57
2022-11-14T23:47:57.819Z,11.35
2022-11-14T23:50:44.263Z,11.20
2022-11-14T23:53:30.703Z,11.40
2022-11-14T23:56:16.857Z,12.02
2022-11-14T23:59:02.833Z,11.13
